sensor_id;sensor_type;location;lat;lon;timestamp;temperature;humidity
32534;DHT22;18973;48.580;8.912;2024-02-04T00:00:48;8.00;99.90
32534;DHT22;18973;48.580;8.912;2024-02-04T00:03:14;8.00;99.90
32534;DHT22;18973;48.580;8.912;2024-02-04T00:05:39;8.00;99.90
32534;DHT22;18973;48.580;8.912;2024-02-04T00:08:05;7.90;99.90
32534;DHT22;18973;48.580;8.912;2024-02-04T00:10:31;7.90;99.90
32534;DHT22;18973;48.580;8.912;2024-02-04T00:13:07;7.90;99.90
32534;DHT22;18973;48.580;8.912;2024-02-04T00:15:32;7.90;99.90
32534;DHT22;18973;48.580;8.912;2024-02-04T00:17:58;7.90;99.90
32534;DHT22;18973;48.580;8.912;2024-02-04T00:20:24;7.90;99.90
32534;DHT22;18973;48.580;8.912;2024-02-04T00:22:51;7.90;99.90
32534;DHT22;18973;48.580;8.912;2024-02-04T00:25:16;8.00;99.90
32534;DHT22;18973;48.580;8.912;2024-02-04T00:27:44;7.90;99.90
32534;DHT22;18973;48.580;8.912;2024-02-04T00:30:10;7.90;99.90
32534;DHT22;18973;48.580;8.912;2024-02-04T00:32:36;7.90;99.90
32534;DHT22;18973;48.580;8.912;2024-02-04T00:35:02;7.90;99.90
32534;DHT22;18973;48.580;8.912;2024-02-04T00:37:28;8.00;99.90
32534;DHT22;18973;48.580;8.912;2024-02-04T00:39:54;7.90;99.90
32534;DHT22;18973;48.580;8.912;2024-02-04T00:42:19;7.90;99.90
32534;DHT22;18973;48.580;8.912;2024-02-04T00:44:45;7.80;99.90
32534;DHT22;18973;48.580;8.912;2024-02-04T00:47:11;7.80;99.90
32534;DHT22;18973;48.580;8.912;2024-02-04T00:49:36;7.90;99.90
32534;DHT22;18973;48.580;8.912;2024-02-04T00:52:02;7.80;99.90
32534;DHT22;18973;48.580;8.912;2024-02-04T00:54:28;7.80;99.90
32534;DHT22;18973;48.580;8.912;2024-02-04T00:56:53;7.70;99.90
32534;DHT22;18973;48.580;8.912;2024-02-04T00:59:19;7.70;99.90
32534;DHT22;18973;48.580;8.912;2024-02-04T01:01:45;7.70;99.90
32534;DHT22;18973;48.580;8.912;2024-02-04T01:04:11;7.70;99.90
32534;DHT22;18973;48.580;8.912;2024-02-04T01:06:37;7.70;99.90
32534;DHT22;18973;48.580;8.912;2024-02-04T01:09:02;7.60;99.90
32534;DHT22;18973;48.580;8.912;2024-02-04T01:11:28;7.60;99.90
32534;DHT22;18973;48.580;8.912;2024-02-04T01:13:55;7.60;99.90
32534;DHT22;18973;48.580;8.912;2024-02-04T01:16:20;7.60;99.90
32534;DHT22;18973;48.580;8.912;2024-02-04T01:18:46;7.60;99.90
32534;DHT22;18973;48.580;8.912;2024-02-04T01:21:11;7.60;99.90
32534;DHT22;18973;48.580;8.912;2024-02-04T01:23:37;7.80;99.90
32534;DHT22;18973;48.580;8.912;2024-02-04T01:26:03;7.60;99.90
32534;DHT22;18973;48.580;8.912;2024-02-04T01:28:28;7.70;99.90
32534;DHT22;18973;48.580;8.912;2024-02-04T01:30:54;7.70;99.90
32534;DHT22;18973;48.580;8.912;2024-02-04T01:33:20;7.60;99.90
32534;DHT22;18973;48.580;8.912;2024-02-04T01:35:45;7.70;99.90
32534;DHT22;18973;48.580;8.912;2024-02-04T01:38:11;7.60;99.90
32534;DHT22;18973;48.580;8.912;2024-02-04T01:40:37;7.50;99.90
32534;DHT22;18973;48.580;8.912;2024-02-04T01:43:03;7.50;99.90
32534;DHT22;18973;48.580;8.912;2024-02-04T01:45:28;7.40;99.90
32534;DHT22;18973;48.580;8.912;2024-02-04T01:47:54;7.40;99.90
32534;DHT22;18973;48.580;8.912;2024-02-04T01:50:20;7.40;99.90
32534;DHT22;18973;48.580;8.912;2024-02-04T01:52:47;7.40;99.90
32534;DHT22;18973;48.580;8.912;2024-02-04T01:55:13;7.30;99.90
32534;DHT22;18973;48.580;8.912;2024-02-04T01:57:39;7.30;99.90
32534;DHT22;18973;48.580;8.912;2024-02-04T02:00:06;7.20;99.90
32534;DHT22;18973;48.580;8.912;2024-02-04T02:02:34;7.20;99.90
32534;DHT22;18973;48.580;8.912;2024-02-04T02:05:04;7.20;99.90
32534;DHT22;18973;48.580;8.912;2024-02-04T02:07:30;7.20;99.90
32534;DHT22;18973;48.580;8.912;2024-02-04T02:09:56;7.30;99.90
32534;DHT22;18973;48.580;8.912;2024-02-04T02:12:27;7.30;99.90
32534;DHT22;18973;48.580;8.912;2024-02-04T02:15:01;7.40;99.90
32534;DHT22;18973;48.580;8.912;2024-02-04T02:17:38;7.30;99.90
32534;DHT22;18973;48.580;8.912;2024-02-04T02:20:23;7.30;99.90
32534;DHT22;18973;48.580;8.912;2024-02-04T02:22:51;7.30;99.90
32534;DHT22;18973;48.580;8.912;2024-02-04T02:25:22;7.30;99.90
32534;DHT22;18973;48.580;8.912;2024-02-04T02:27:49;7.20;99.90
32534;DHT22;18973;48.580;8.912;2024-02-04T02:30:15;7.20;99.90
32534;DHT22;18973;48.580;8.912;2024-02-04T02:32:45;7.20;99.90
32534;DHT22;18973;48.580;8.912;2024-02-04T02:35:13;7.20;99.90
32534;DHT22;18973;48.580;8.912;2024-02-04T02:40:29;7.10;99.90
32534;DHT22;18973;48.580;8.912;2024-02-04T02:42:57;7.20;99.90
32534;DHT22;18973;48.580;8.912;2024-02-04T02:45:26;7.20;99.90
32534;DHT22;18973;48.580;8.912;2024-02-04T02:47:52;7.20;99.90
32534;DHT22;18973;48.580;8.912;2024-02-04T02:50:19;7.20;99.90
32534;DHT22;18973;48.580;8.912;2024-02-04T02:52:45;7.20;99.90
32534;DHT22;18973;48.580;8.912;2024-02-04T02:55:11;7.30;99.90
32534;DHT22;18973;48.580;8.912;2024-02-04T02:57:37;7.20;99.90
32534;DHT22;18973;48.580;8.912;2024-02-04T03:00:03;7.20;99.90
32534;DHT22;18973;48.580;8.912;2024-02-04T03:02:31;7.20;99.90
32534;DHT22;18973;48.580;8.912;2024-02-04T03:04:56;7.10;99.90
32534;DHT22;18973;48.580;8.912;2024-02-04T03:07:22;7.20;99.90
32534;DHT22;18973;48.580;8.912;2024-02-04T03:09:48;7.20;99.90
32534;DHT22;18973;48.580;8.912;2024-02-04T03:12:13;7.20;99.90
32534;DHT22;18973;48.580;8.912;2024-02-04T03:14:39;7.20;99.90
32534;DHT22;18973;48.580;8.912;2024-02-04T03:17:05;7.30;99.90
32534;DHT22;18973;48.580;8.912;2024-02-04T03:19:30;7.30;99.90
32534;DHT22;18973;48.580;8.912;2024-02-04T03:21:56;7.20;99.90
32534;DHT22;18973;48.580;8.912;2024-02-04T03:24:22;7.20;99.90
32534;DHT22;18973;48.580;8.912;2024-02-04T03:26:47;7.20;99.90
32534;DHT22;18973;48.580;8.912;2024-02-04T03:29:13;7.20;99.90
32534;DHT22;18973;48.580;8.912;2024-02-04T03:31:39;7.20;99.90
32534;DHT22;18973;48.580;8.912;2024-02-04T03:34:04;7.20;99.90
32534;DHT22;18973;48.580;8.912;2024-02-04T03:36:30;7.20;99.90
32534;DHT22;18973;48.580;8.912;2024-02-04T03:38:56;7.20;99.90
32534;DHT22;18973;48.580;8.912;2024-02-04T03:41:22;7.20;99.90
32534;DHT22;18973;48.580;8.912;2024-02-04T03:43:47;7.20;99.90
32534;DHT22;18973;48.580;8.912;2024-02-04T03:46:14;7.20;99.90
32534;DHT22;18973;48.580;8.912;2024-02-04T03:48:40;7.20;99.90
32534;DHT22;18973;48.580;8.912;2024-02-04T03:51:06;7.20;99.90
32534;DHT22;18973;48.580;8.912;2024-02-04T03:53:33;7.20;99.90
32534;DHT22;18973;48.580;8.912;2024-02-04T03:55:59;7.20;99.90
32534;DHT22;18973;48.580;8.912;2024-02-04T03:58:24;7.20;99.90
32534;DHT22;18973;48.580;8.912;2024-02-04T04:00:57;7.10;99.90
32534;DHT22;18973;48.580;8.912;2024-02-04T04:03:24;7.10;99.90
32534;DHT22;18973;48.580;8.912;2024-02-04T04:05:50;7.10;99.90
32534;DHT22;18973;48.580;8.912;2024-02-04T04:08:16;7.10;99.90
32534;DHT22;18973;48.580;8.912;2024-02-04T04:10:43;7.10;99.90
32534;DHT22;18973;48.580;8.912;2024-02-04T04:13:09;7.10;99.90
32534;DHT22;18973;48.580;8.912;2024-02-04T04:15:34;7.10;99.90
32534;DHT22;18973;48.580;8.912;2024-02-04T04:18:00;7.00;99.90
32534;DHT22;18973;48.580;8.912;2024-02-04T04:20:26;7.10;99.90
32534;DHT22;18973;48.580;8.912;2024-02-04T04:22:51;7.10;99.90
32534;DHT22;18973;48.580;8.912;2024-02-04T04:25:17;7.10;99.90
32534;DHT22;18973;48.580;8.912;2024-02-04T04:27:43;7.00;99.90
32534;DHT22;18973;48.580;8.912;2024-02-04T04:30:09;7.10;99.90
32534;DHT22;18973;48.580;8.912;2024-02-04T04:32:35;7.10;99.90
32534;DHT22;18973;48.580;8.912;2024-02-04T04:35:01;7.10;99.90
32534;DHT22;18973;48.580;8.912;2024-02-04T04:37:27;7.10;99.90
32534;DHT22;18973;48.580;8.912;2024-02-04T04:39:52;7.10;99.90
32534;DHT22;18973;48.580;8.912;2024-02-04T04:42:18;7.10;99.90
32534;DHT22;18973;48.580;8.912;2024-02-04T04:44:43;7.10;99.90
32534;DHT22;18973;48.580;8.912;2024-02-04T04:47:09;7.00;99.90
32534;DHT22;18973;48.580;8.912;2024-02-04T04:49:35;7.00;99.90
32534;DHT22;18973;48.580;8.912;2024-02-04T04:52:01;6.90;99.90
32534;DHT22;18973;48.580;8.912;2024-02-04T04:54:28;6.90;99.90
32534;DHT22;18973;48.580;8.912;2024-02-04T04:56:53;6.90;99.90
32534;DHT22;18973;48.580;8.912;2024-02-04T04:59:19;7.00;99.90
32534;DHT22;18973;48.580;8.912;2024-02-04T05:01:49;6.90;99.90
32534;DHT22;18973;48.580;8.912;2024-02-04T05:04:16;6.90;99.90
32534;DHT22;18973;48.580;8.912;2024-02-04T05:06:42;6.90;99.90
32534;DHT22;18973;48.580;8.912;2024-02-04T05:09:07;6.90;99.90
32534;DHT22;18973;48.580;8.912;2024-02-04T05:11:34;6.90;99.90
32534;DHT22;18973;48.580;8.912;2024-02-04T05:13:59;6.80;99.90
32534;DHT22;18973;48.580;8.912;2024-02-04T05:16:25;6.80;99.90
32534;DHT22;18973;48.580;8.912;2024-02-04T05:18:51;6.80;99.90
32534;DHT22;18973;48.580;8.912;2024-02-04T05:21:17;6.90;99.90
32534;DHT22;18973;48.580;8.912;2024-02-04T05:23:42;6.90;99.90
32534;DHT22;18973;48.580;8.912;2024-02-04T05:26:08;6.90;99.90
32534;DHT22;18973;48.580;8.912;2024-02-04T05:28:34;6.90;99.90
32534;DHT22;18973;48.580;8.912;2024-02-04T05:31:01;6.90;99.90
32534;DHT22;18973;48.580;8.912;2024-02-04T05:33:27;7.00;99.90
32534;DHT22;18973;48.580;8.912;2024-02-04T05:35:53;7.00;99.90
32534;DHT22;18973;48.580;8.912;2024-02-04T05:38:19;7.00;99.90
32534;DHT22;18973;48.580;8.912;2024-02-04T05:40:44;7.00;99.90
32534;DHT22;18973;48.580;8.912;2024-02-04T05:43:10;7.00;99.90
32534;DHT22;18973;48.580;8.912;2024-02-04T05:45:39;6.90;99.90
32534;DHT22;18973;48.580;8.912;2024-02-04T05:48:09;7.00;99.90
32534;DHT22;18973;48.580;8.912;2024-02-04T05:50:35;6.90;99.90
32534;DHT22;18973;48.580;8.912;2024-02-04T05:53:00;7.00;99.90
32534;DHT22;18973;48.580;8.912;2024-02-04T05:55:26;7.00;99.90
32534;DHT22;18973;48.580;8.912;2024-02-04T05:57:52;7.00;99.90
32534;DHT22;18973;48.580;8.912;2024-02-04T06:00:18;7.00;99.90
32534;DHT22;18973;48.580;8.912;2024-02-04T06:02:43;6.90;99.90
32534;DHT22;18973;48.580;8.912;2024-02-04T06:05:10;6.80;99.90
32534;DHT22;18973;48.580;8.912;2024-02-04T06:07:36;6.90;99.90
32534;DHT22;18973;48.580;8.912;2024-02-04T06:10:02;7.00;99.90
32534;DHT22;18973;48.580;8.912;2024-02-04T06:12:29;7.00;99.90
32534;DHT22;18973;48.580;8.912;2024-02-04T06:14:55;7.00;99.90
32534;DHT22;18973;48.580;8.912;2024-02-04T06:17:21;7.10;99.90
32534;DHT22;18973;48.580;8.912;2024-02-04T06:19:46;7.10;99.90
32534;DHT22;18973;48.580;8.912;2024-02-04T06:22:12;7.00;99.90
32534;DHT22;18973;48.580;8.912;2024-02-04T06:24:37;7.00;99.90
32534;DHT22;18973;48.580;8.912;2024-02-04T06:27:10;7.00;99.90
32534;DHT22;18973;48.580;8.912;2024-02-04T06:29:36;7.10;99.90
32534;DHT22;18973;48.580;8.912;2024-02-04T06:32:03;7.10;99.90
32534;DHT22;18973;48.580;8.912;2024-02-04T06:34:28;7.10;99.90
32534;DHT22;18973;48.580;8.912;2024-02-04T06:36:54;7.10;99.90
32534;DHT22;18973;48.580;8.912;2024-02-04T06:39:20;7.10;99.90
32534;DHT22;18973;48.580;8.912;2024-02-04T06:41:46;7.10;99.90
32534;DHT22;18973;48.580;8.912;2024-02-04T06:44:12;7.10;99.90
32534;DHT22;18973;48.580;8.912;2024-02-04T06:46:37;7.10;99.90
32534;DHT22;18973;48.580;8.912;2024-02-04T06:49:03;7.10;99.90
32534;DHT22;18973;48.580;8.912;2024-02-04T06:51:29;7.00;99.90
32534;DHT22;18973;48.580;8.912;2024-02-04T06:53:54;7.00;99.90
32534;DHT22;18973;48.580;8.912;2024-02-04T06:56:20;7.00;99.90
32534;DHT22;18973;48.580;8.912;2024-02-04T06:58:46;7.00;99.90
32534;DHT22;18973;48.580;8.912;2024-02-04T07:01:12;7.00;99.90
32534;DHT22;18973;48.580;8.912;2024-02-04T07:03:38;7.00;99.90
32534;DHT22;18973;48.580;8.912;2024-02-04T07:06:04;7.00;99.90
32534;DHT22;18973;48.580;8.912;2024-02-04T07:08:30;7.00;99.90
32534;DHT22;18973;48.580;8.912;2024-02-04T07:10:55;7.00;99.90
32534;DHT22;18973;48.580;8.912;2024-02-04T07:13:21;6.90;99.90
32534;DHT22;18973;48.580;8.912;2024-02-04T07:15:47;7.00;99.90
32534;DHT22;18973;48.580;8.912;2024-02-04T07:18:13;7.00;99.90
32534;DHT22;18973;48.580;8.912;2024-02-04T07:20:39;7.00;99.90
32534;DHT22;18973;48.580;8.912;2024-02-04T07:23:05;7.10;99.90
32534;DHT22;18973;48.580;8.912;2024-02-04T07:25:31;7.00;99.90
32534;DHT22;18973;48.580;8.912;2024-02-04T07:27:57;7.00;99.90
32534;DHT22;18973;48.580;8.912;2024-02-04T07:30:24;7.10;99.90
32534;DHT22;18973;48.580;8.912;2024-02-04T07:32:49;7.20;99.90
32534;DHT22;18973;48.580;8.912;2024-02-04T07:35:16;7.20;99.90
32534;DHT22;18973;48.580;8.912;2024-02-04T07:37:42;7.10;99.90
32534;DHT22;18973;48.580;8.912;2024-02-04T07:40:08;7.20;99.90
32534;DHT22;18973;48.580;8.912;2024-02-04T07:42:33;7.20;99.90
32534;DHT22;18973;48.580;8.912;2024-02-04T07:44:59;7.20;99.90
32534;DHT22;18973;48.580;8.912;2024-02-04T07:47:25;7.30;99.90
32534;DHT22;18973;48.580;8.912;2024-02-04T07:49:51;7.40;99.90
32534;DHT22;18973;48.580;8.912;2024-02-04T07:52:17;7.30;99.90
32534;DHT22;18973;48.580;8.912;2024-02-04T07:54:42;7.30;99.90
32534;DHT22;18973;48.580;8.912;2024-02-04T07:57:12;7.40;99.90
32534;DHT22;18973;48.580;8.912;2024-02-04T07:59:38;7.40;99.90
32534;DHT22;18973;48.580;8.912;2024-02-04T08:02:03;7.40;99.90
32534;DHT22;18973;48.580;8.912;2024-02-04T08:04:30;7.40;99.90
32534;DHT22;18973;48.580;8.912;2024-02-04T08:06:55;7.30;99.90
32534;DHT22;18973;48.580;8.912;2024-02-04T08:09:21;7.40;99.90
32534;DHT22;18973;48.580;8.912;2024-02-04T08:11:47;7.40;99.90
32534;DHT22;18973;48.580;8.912;2024-02-04T08:14:13;7.50;99.90
32534;DHT22;18973;48.580;8.912;2024-02-04T08:16:43;7.60;99.90
32534;DHT22;18973;48.580;8.912;2024-02-04T08:19:08;7.60;99.90
32534;DHT22;18973;48.580;8.912;2024-02-04T08:21:34;7.60;99.90
32534;DHT22;18973;48.580;8.912;2024-02-04T08:24:00;7.70;99.90
32534;DHT22;18973;48.580;8.912;2024-02-04T08:26:25;7.70;99.90
32534;DHT22;18973;48.580;8.912;2024-02-04T08:28:51;7.80;99.90
32534;DHT22;18973;48.580;8.912;2024-02-04T08:31:17;7.80;99.90
32534;DHT22;18973;48.580;8.912;2024-02-04T08:33:42;7.90;99.90
32534;DHT22;18973;48.580;8.912;2024-02-04T08:36:08;7.90;99.90
32534;DHT22;18973;48.580;8.912;2024-02-04T08:38:36;7.90;99.90
32534;DHT22;18973;48.580;8.912;2024-02-04T08:41:03;8.00;99.90
32534;DHT22;18973;48.580;8.912;2024-02-04T08:43:29;8.00;99.90
32534;DHT22;18973;48.580;8.912;2024-02-04T08:45:54;8.10;99.90
32534;DHT22;18973;48.580;8.912;2024-02-04T08:48:20;8.20;99.90
32534;DHT22;18973;48.580;8.912;2024-02-04T08:50:46;8.30;99.90
32534;DHT22;18973;48.580;8.912;2024-02-04T08:53:11;8.30;99.90
32534;DHT22;18973;48.580;8.912;2024-02-04T08:55:37;8.40;99.90
32534;DHT22;18973;48.580;8.912;2024-02-04T08:58:03;8.40;99.90
32534;DHT22;18973;48.580;8.912;2024-02-04T09:00:29;8.40;99.90
32534;DHT22;18973;48.580;8.912;2024-02-04T09:02:54;8.50;99.90
32534;DHT22;18973;48.580;8.912;2024-02-04T09:05:21;8.30;99.90
32534;DHT22;18973;48.580;8.912;2024-02-04T09:07:47;8.30;99.90
32534;DHT22;18973;48.580;8.912;2024-02-04T09:10:12;8.30;99.90
32534;DHT22;18973;48.580;8.912;2024-02-04T09:12:38;8.30;99.90
32534;DHT22;18973;48.580;8.912;2024-02-04T09:15:04;8.40;99.90
32534;DHT22;18973;48.580;8.912;2024-02-04T09:17:31;8.40;99.90
32534;DHT22;18973;48.580;8.912;2024-02-04T09:19:59;8.30;99.90
32534;DHT22;18973;48.580;8.912;2024-02-04T09:22:25;8.40;99.90
32534;DHT22;18973;48.580;8.912;2024-02-04T09:24:51;8.40;99.90
32534;DHT22;18973;48.580;8.912;2024-02-04T09:27:16;8.40;99.90
32534;DHT22;18973;48.580;8.912;2024-02-04T09:29:42;8.40;99.90
32534;DHT22;18973;48.580;8.912;2024-02-04T09:32:08;8.50;99.90
32534;DHT22;18973;48.580;8.912;2024-02-04T09:34:33;8.50;99.90
32534;DHT22;18973;48.580;8.912;2024-02-04T09:36:59;8.50;99.90
32534;DHT22;18973;48.580;8.912;2024-02-04T09:39:26;8.50;99.90
32534;DHT22;18973;48.580;8.912;2024-02-04T09:41:53;8.50;99.90
32534;DHT22;18973;48.580;8.912;2024-02-04T09:44:20;8.60;99.90
32534;DHT22;18973;48.580;8.912;2024-02-04T09:46:46;8.60;99.90
32534;DHT22;18973;48.580;8.912;2024-02-04T09:49:13;8.60;99.90
32534;DHT22;18973;48.580;8.912;2024-02-04T09:51:40;8.60;99.90
32534;DHT22;18973;48.580;8.912;2024-02-04T09:54:07;8.60;99.90
32534;DHT22;18973;48.580;8.912;2024-02-04T09:56:34;8.70;99.90
32534;DHT22;18973;48.580;8.912;2024-02-04T09:59:01;8.70;99.90
32534;DHT22;18973;48.580;8.912;2024-02-04T10:01:28;8.80;99.90
32534;DHT22;18973;48.580;8.912;2024-02-04T10:03:55;9.00;99.90
32534;DHT22;18973;48.580;8.912;2024-02-04T10:06:21;9.00;99.90
32534;DHT22;18973;48.580;8.912;2024-02-04T10:08:46;9.00;99.90
32534;DHT22;18973;48.580;8.912;2024-02-04T10:11:13;8.90;99.90
32534;DHT22;18973;48.580;8.912;2024-02-04T10:13:46;8.90;99.90
32534;DHT22;18973;48.580;8.912;2024-02-04T10:16:16;9.10;99.90
32534;DHT22;18973;48.580;8.912;2024-02-04T10:18:46;9.20;99.90
32534;DHT22;18973;48.580;8.912;2024-02-04T10:21:21;9.50;99.90
32534;DHT22;18973;48.580;8.912;2024-02-04T10:23:47;9.90;99.90
32534;DHT22;18973;48.580;8.912;2024-02-04T10:26:13;10.50;99.90
32534;DHT22;18973;48.580;8.912;2024-02-04T10:28:39;10.60;99.90
32534;DHT22;18973;48.580;8.912;2024-02-04T10:31:09;10.50;99.90
32534;DHT22;18973;48.580;8.912;2024-02-04T10:33:35;10.30;99.90
32534;DHT22;18973;48.580;8.912;2024-02-04T10:36:02;10.20;99.90
32534;DHT22;18973;48.580;8.912;2024-02-04T10:38:28;10.10;99.90
32534;DHT22;18973;48.580;8.912;2024-02-04T10:40:54;10.50;99.90
32534;DHT22;18973;48.580;8.912;2024-02-04T10:43:23;10.70;99.90
32534;DHT22;18973;48.580;8.912;2024-02-04T10:45:53;11.00;99.90
32534;DHT22;18973;48.580;8.912;2024-02-04T10:48:24;11.20;99.90
32534;DHT22;18973;48.580;8.912;2024-02-04T10:50:51;11.20;99.90
32534;DHT22;18973;48.580;8.912;2024-02-04T10:53:21;11.20;99.90
32534;DHT22;18973;48.580;8.912;2024-02-04T10:55:49;11.10;99.90
32534;DHT22;18973;48.580;8.912;2024-02-04T10:58:19;11.00;99.90
32534;DHT22;18973;48.580;8.912;2024-02-04T11:00:45;11.10;99.90
32534;DHT22;18973;48.580;8.912;2024-02-04T11:03:11;11.10;99.90
32534;DHT22;18973;48.580;8.912;2024-02-04T11:05:39;11.40;99.90
32534;DHT22;18973;48.580;8.912;2024-02-04T11:08:10;11.80;99.90
32534;DHT22;18973;48.580;8.912;2024-02-04T11:10:36;12.20;99.90
32534;DHT22;18973;48.580;8.912;2024-02-04T11:13:04;12.40;99.90
32534;DHT22;18973;48.580;8.912;2024-02-04T11:15:35;12.50;99.90
32534;DHT22;18973;48.580;8.912;2024-02-04T11:18:30;12.60;99.90
32534;DHT22;18973;48.580;8.912;2024-02-04T11:21:28;12.60;99.90
32534;DHT22;18973;48.580;8.912;2024-02-04T11:25:00;12.40;99.90
32534;DHT22;18973;48.580;8.912;2024-02-04T11:27:03;12.30;99.90
32534;DHT22;18973;48.580;8.912;2024-02-04T11:29:29;12.30;99.90
32534;DHT22;18973;48.580;8.912;2024-02-04T11:31:54;12.20;99.90
32534;DHT22;18973;48.580;8.912;2024-02-04T11:34:20;12.00;99.90
32534;DHT22;18973;48.580;8.912;2024-02-04T11:36:46;11.80;99.90
32534;DHT22;18973;48.580;8.912;2024-02-04T11:39:18;12.20;99.90
32534;DHT22;18973;48.580;8.912;2024-02-04T11:41:48;12.80;99.90
32534;DHT22;18973;48.580;8.912;2024-02-04T11:44:24;13.10;99.90
32534;DHT22;18973;48.580;8.912;2024-02-04T11:46:51;13.50;99.90
32534;DHT22;18973;48.580;8.912;2024-02-04T11:49:18;13.50;99.90
32534;DHT22;18973;48.580;8.912;2024-02-04T11:51:50;13.50;99.90
32534;DHT22;18973;48.580;8.912;2024-02-04T11:54:16;13.40;99.90
32534;DHT22;18973;48.580;8.912;2024-02-04T11:56:45;13.40;99.90
32534;DHT22;18973;48.580;8.912;2024-02-04T11:59:12;13.30;99.90
32534;DHT22;18973;48.580;8.912;2024-02-04T12:01:40;13.40;99.90
32534;DHT22;18973;48.580;8.912;2024-02-04T12:04:10;13.30;99.90
32534;DHT22;18973;48.580;8.912;2024-02-04T12:06:38;13.40;99.90
32534;DHT22;18973;48.580;8.912;2024-02-04T12:09:04;13.40;99.90
32534;DHT22;18973;48.580;8.912;2024-02-04T12:11:33;13.50;99.90
32534;DHT22;18973;48.580;8.912;2024-02-04T12:14:00;13.70;99.90
32534;DHT22;18973;48.580;8.912;2024-02-04T12:16:27;13.70;99.90
32534;DHT22;18973;48.580;8.912;2024-02-04T12:18:53;13.80;99.90
32534;DHT22;18973;48.580;8.912;2024-02-04T12:21:19;13.80;99.90
32534;DHT22;18973;48.580;8.912;2024-02-04T12:23:45;13.60;99.90
32534;DHT22;18973;48.580;8.912;2024-02-04T12:26:12;13.40;99.90
32534;DHT22;18973;48.580;8.912;2024-02-04T12:28:39;13.40;99.90
32534;DHT22;18973;48.580;8.912;2024-02-04T12:31:05;13.30;99.90
32534;DHT22;18973;48.580;8.912;2024-02-04T12:33:31;13.20;99.90
32534;DHT22;18973;48.580;8.912;2024-02-04T12:35:56;13.10;99.90
32534;DHT22;18973;48.580;8.912;2024-02-04T12:38:24;13.00;99.90
32534;DHT22;18973;48.580;8.912;2024-02-04T12:40:50;12.90;99.90
32534;DHT22;18973;48.580;8.912;2024-02-04T12:43:16;12.50;99.90
32534;DHT22;18973;48.580;8.912;2024-02-04T12:45:42;12.40;99.90
32534;DHT22;18973;48.580;8.912;2024-02-04T12:48:08;12.30;99.90
32534;DHT22;18973;48.580;8.912;2024-02-04T12:50:37;12.30;99.90
32534;DHT22;18973;48.580;8.912;2024-02-04T12:53:07;12.20;99.90
32534;DHT22;18973;48.580;8.912;2024-02-04T12:55:37;12.20;99.90
32534;DHT22;18973;48.580;8.912;2024-02-04T13:00:33;12.00;99.90
32534;DHT22;18973;48.580;8.912;2024-02-04T13:02:59;12.00;99.90
32534;DHT22;18973;48.580;8.912;2024-02-04T13:05:25;12.10;99.90
32534;DHT22;18973;48.580;8.912;2024-02-04T13:07:55;12.20;99.90
32534;DHT22;18973;48.580;8.912;2024-02-04T13:10:25;12.20;99.90
32534;DHT22;18973;48.580;8.912;2024-02-04T13:15:29;12.50;99.90
32534;DHT22;18973;48.580;8.912;2024-02-04T13:17:55;12.80;99.90
32534;DHT22;18973;48.580;8.912;2024-02-04T13:20:22;12.70;99.90
32534;DHT22;18973;48.580;8.912;2024-02-04T13:22:48;12.60;99.90
32534;DHT22;18973;48.580;8.912;2024-02-04T13:25:14;12.50;99.90
32534;DHT22;18973;48.580;8.912;2024-02-04T13:27:40;12.50;99.90
32534;DHT22;18973;48.580;8.912;2024-02-04T13:30:06;12.40;99.90
32534;DHT22;18973;48.580;8.912;2024-02-04T13:32:43;12.30;99.90
32534;DHT22;18973;48.580;8.912;2024-02-04T13:35:09;12.30;99.90
32534;DHT22;18973;48.580;8.912;2024-02-04T13:37:39;12.20;99.90
32534;DHT22;18973;48.580;8.912;2024-02-04T13:40:06;12.20;99.90
32534;DHT22;18973;48.580;8.912;2024-02-04T13:42:33;12.10;99.90
32534;DHT22;18973;48.580;8.912;2024-02-04T13:45:00;12.00;99.90
32534;DHT22;18973;48.580;8.912;2024-02-04T13:47:27;11.80;99.90
32534;DHT22;18973;48.580;8.912;2024-02-04T13:49:54;11.70;99.90
32534;DHT22;18973;48.580;8.912;2024-02-04T13:52:20;11.70;99.90
32534;DHT22;18973;48.580;8.912;2024-02-04T13:54:46;11.60;99.90
32534;DHT22;18973;48.580;8.912;2024-02-04T13:57:12;11.60;99.90
32534;DHT22;18973;48.580;8.912;2024-02-04T13:59:37;11.40;99.90
32534;DHT22;18973;48.580;8.912;2024-02-04T14:02:03;11.30;99.90
32534;DHT22;18973;48.580;8.912;2024-02-04T14:04:30;11.20;99.90
32534;DHT22;18973;48.580;8.912;2024-02-04T14:06:57;11.10;99.90
32534;DHT22;18973;48.580;8.912;2024-02-04T14:09:22;11.00;99.90
32534;DHT22;18973;48.580;8.912;2024-02-04T14:11:48;11.00;99.90
32534;DHT22;18973;48.580;8.912;2024-02-04T14:14:14;11.00;99.90
32534;DHT22;18973;48.580;8.912;2024-02-04T14:16:40;10.90;99.90
32534;DHT22;18973;48.580;8.912;2024-02-04T14:19:06;11.00;99.90
32534;DHT22;18973;48.580;8.912;2024-02-04T14:21:31;10.90;99.90
32534;DHT22;18973;48.580;8.912;2024-02-04T14:23:57;10.70;99.90
32534;DHT22;18973;48.580;8.912;2024-02-04T14:26:23;10.70;99.90
32534;DHT22;18973;48.580;8.912;2024-02-04T14:28:49;10.60;99.90
32534;DHT22;18973;48.580;8.912;2024-02-04T14:31:14;10.70;99.90
32534;DHT22;18973;48.580;8.912;2024-02-04T14:33:41;10.70;99.90
32534;DHT22;18973;48.580;8.912;2024-02-04T14:36:07;10.80;99.90
32534;DHT22;18973;48.580;8.912;2024-02-04T14:38:33;10.60;99.90
32534;DHT22;18973;48.580;8.912;2024-02-04T14:40:59;10.60;99.90
32534;DHT22;18973;48.580;8.912;2024-02-04T14:43:28;10.60;99.90
32534;DHT22;18973;48.580;8.912;2024-02-04T14:45:53;10.50;99.90
32534;DHT22;18973;48.580;8.912;2024-02-04T14:48:19;10.40;99.90
32534;DHT22;18973;48.580;8.912;2024-02-04T14:50:45;10.40;99.90
32534;DHT22;18973;48.580;8.912;2024-02-04T14:53:10;10.40;99.90
32534;DHT22;18973;48.580;8.912;2024-02-04T14:55:36;10.50;99.90
32534;DHT22;18973;48.580;8.912;2024-02-04T14:58:02;10.50;99.90
32534;DHT22;18973;48.580;8.912;2024-02-04T15:00:27;10.40;99.90
32534;DHT22;18973;48.580;8.912;2024-02-04T15:02:54;10.40;99.90
32534;DHT22;18973;48.580;8.912;2024-02-04T15:05:20;10.40;99.90
32534;DHT22;18973;48.580;8.912;2024-02-04T15:07:49;10.30;99.90
32534;DHT22;18973;48.580;8.912;2024-02-04T15:10:16;10.30;99.90
32534;DHT22;18973;48.580;8.912;2024-02-04T15:12:42;10.30;99.90
32534;DHT22;18973;48.580;8.912;2024-02-04T15:15:09;10.20;99.90
32534;DHT22;18973;48.580;8.912;2024-02-04T15:17:36;10.30;99.90
32534;DHT22;18973;48.580;8.912;2024-02-04T15:20:02;10.30;99.90
32534;DHT22;18973;48.580;8.912;2024-02-04T15:22:28;10.40;99.90
32534;DHT22;18973;48.580;8.912;2024-02-04T15:24:55;10.20;99.90
32534;DHT22;18973;48.580;8.912;2024-02-04T15:27:22;10.30;99.90
32534;DHT22;18973;48.580;8.912;2024-02-04T15:29:49;10.30;99.90
32534;DHT22;18973;48.580;8.912;2024-02-04T15:32:15;10.30;99.90
32534;DHT22;18973;48.580;8.912;2024-02-04T15:34:42;10.30;99.90
32534;DHT22;18973;48.580;8.912;2024-02-04T15:37:08;10.30;99.90
32534;DHT22;18973;48.580;8.912;2024-02-04T15:39:36;10.20;99.90
32534;DHT22;18973;48.580;8.912;2024-02-04T15:42:03;10.30;99.90
32534;DHT22;18973;48.580;8.912;2024-02-04T15:44:32;10.30;99.90